sensor_id;sensor_type;location;lat;lon;timestamp;temperature;humidity
50013;DHT22;35901;48.694;9.476;2022-12-08T00:00:38;-1.00;99.90
50013;DHT22;35901;48.694;9.476;2022-12-08T00:03:04;-1.10;99.90
50013;DHT22;35901;48.694;9.476;2022-12-08T00:05:29;-1.20;99.90
50013;DHT22;35901;48.694;9.476;2022-12-08T00:08:15;-1.20;99.90
50013;DHT22;35901;48.694;9.476;2022-12-08T00:11:02;-1.20;99.90
50013;DHT22;35901;48.694;9.476;2022-12-08T00:13:28;-1.30;99.90
50013;DHT22;35901;48.694;9.476;2022-12-08T00:15:59;-1.30;99.90
50013;DHT22;35901;48.694;9.476;2022-12-08T00:18:25;-1.40;99.90
50013;DHT22;35901;48.694;9.476;2022-12-08T00:20:55;-1.40;99.90
50013;DHT22;35901;48.694;9.476;2022-12-08T00:23:21;-1.40;99.90
50013;DHT22;35901;48.694;9.476;2022-12-08T00:25:46;-1.40;99.90
50013;DHT22;35901;48.694;9.476;2022-12-08T00:28:12;-1.50;99.90
50013;DHT22;35901;48.694;9.476;2022-12-08T00:30:41;-1.60;99.90
50013;DHT22;35901;48.694;9.476;2022-12-08T00:33:07;-1.70;99.90
50013;DHT22;35901;48.694;9.476;2022-12-08T00:35:33;-1.70;99.90
50013;DHT22;35901;48.694;9.476;2022-12-08T00:37:58;-1.80;99.90
50013;DHT22;35901;48.694;9.476;2022-12-08T00:40:24;-1.80;99.90
50013;DHT22;35901;48.694;9.476;2022-12-08T00:42:50;-1.90;99.90
50013;DHT22;35901;48.694;9.476;2022-12-08T00:45:15;-2.00;99.90
50013;DHT22;35901;48.694;9.476;2022-12-08T00:47:41;-2.00;99.90
50013;DHT22;35901;48.694;9.476;2022-12-08T00:50:07;-2.00;99.90
50013;DHT22;35901;48.694;9.476;2022-12-08T00:52:33;-1.80;99.90
50013;DHT22;35901;48.694;9.476;2022-12-08T00:54:59;-1.70;99.90
50013;DHT22;35901;48.694;9.476;2022-12-08T00:57:24;-1.70;99.90
50013;DHT22;35901;48.694;9.476;2022-12-08T00:59:50;-1.60;99.90
50013;DHT22;35901;48.694;9.476;2022-12-08T01:02:16;-1.60;99.90
50013;DHT22;35901;48.694;9.476;2022-12-08T01:04:41;-1.60;99.90
50013;DHT22;35901;48.694;9.476;2022-12-08T01:07:08;-1.60;99.90
50013;DHT22;35901;48.694;9.476;2022-12-08T01:09:34;-1.70;99.90
50013;DHT22;35901;48.694;9.476;2022-12-08T01:12:00;-1.80;99.90
50013;DHT22;35901;48.694;9.476;2022-12-08T01:14:26;-1.90;99.90
50013;DHT22;35901;48.694;9.476;2022-12-08T01:16:51;-1.90;99.90
50013;DHT22;35901;48.694;9.476;2022-12-08T01:19:17;-1.80;99.90
50013;DHT22;35901;48.694;9.476;2022-12-08T01:21:43;-1.90;99.90
50013;DHT22;35901;48.694;9.476;2022-12-08T01:24:15;-1.90;99.90
50013;DHT22;35901;48.694;9.476;2022-12-08T01:26:41;-2.00;99.90
50013;DHT22;35901;48.694;9.476;2022-12-08T01:29:07;-2.20;99.90
50013;DHT22;35901;48.694;9.476;2022-12-08T01:31:36;-2.30;99.90
50013;DHT22;35901;48.694;9.476;2022-12-08T01:34:01;-2.40;99.90
50013;DHT22;35901;48.694;9.476;2022-12-08T01:36:30;-2.50;99.90
50013;DHT22;35901;48.694;9.476;2022-12-08T01:38:58;-2.50;99.90
50013;DHT22;35901;48.694;9.476;2022-12-08T01:41:30;-2.50;99.90
50013;DHT22;35901;48.694;9.476;2022-12-08T01:46:40;-2.60;99.90
50013;DHT22;35901;48.694;9.476;2022-12-08T01:49:14;-2.70;99.90
50013;DHT22;35901;48.694;9.476;2022-12-08T01:51:51;-2.70;99.90
50013;DHT22;35901;48.694;9.476;2022-12-08T01:54:21;-2.70;99.90
50013;DHT22;35901;48.694;9.476;2022-12-08T01:57:05;-2.80;99.90
50013;DHT22;35901;48.694;9.476;2022-12-08T01:59:36;-2.80;99.90
50013;DHT22;35901;48.694;9.476;2022-12-08T02:02:03;-2.90;99.90
50013;DHT22;35901;48.694;9.476;2022-12-08T02:04:29;-2.90;99.90
50013;DHT22;35901;48.694;9.476;2022-12-08T02:06:55;-3.00;99.90
50013;DHT22;35901;48.694;9.476;2022-12-08T02:09:20;-3.00;99.90
50013;DHT22;35901;48.694;9.476;2022-12-08T02:11:49;-3.00;99.90
50013;DHT22;35901;48.694;9.476;2022-12-08T02:14:15;-3.10;99.90
50013;DHT22;35901;48.694;9.476;2022-12-08T02:21:59;-3.00;99.90
50013;DHT22;35901;48.694;9.476;2022-12-08T02:24:46;-2.90;99.90
50013;DHT22;35901;48.694;9.476;2022-12-08T02:30:25;-2.70;99.90
50013;DHT22;35901;48.694;9.476;2022-12-08T02:38:50;-2.80;99.90
50013;DHT22;35901;48.694;9.476;2022-12-08T02:44:19;-2.90;99.90
50013;DHT22;35901;48.694;9.476;2022-12-08T02:46:56;-3.00;99.90
50013;DHT22;35901;48.694;9.476;2022-12-08T02:49:31;-3.10;99.90
50013;DHT22;35901;48.694;9.476;2022-12-08T02:54:42;-3.10;99.90
50013;DHT22;35901;48.694;9.476;2022-12-08T03:00:17;-3.30;99.90
50013;DHT22;35901;48.694;9.476;2022-12-08T03:02:58;-3.30;99.90
50013;DHT22;35901;48.694;9.476;2022-12-08T03:10:44;-3.40;99.90
50013;DHT22;35901;48.694;9.476;2022-12-08T03:13:14;-3.30;99.90
50013;DHT22;35901;48.694;9.476;2022-12-08T03:15:44;-3.30;99.90
50013;DHT22;35901;48.694;9.476;2022-12-08T03:18:14;-3.40;99.90
50013;DHT22;35901;48.694;9.476;2022-12-08T03:20:42;-3.50;99.90
50013;DHT22;35901;48.694;9.476;2022-12-08T03:23:12;-3.70;99.90
50013;DHT22;35901;48.694;9.476;2022-12-08T03:25:45;-3.80;99.90
50013;DHT22;35901;48.694;9.476;2022-12-08T03:28:12;-3.90;99.90
50013;DHT22;35901;48.694;9.476;2022-12-08T03:30:40;-3.90;99.90
50013;DHT22;35901;48.694;9.476;2022-12-08T03:33:21;-3.90;99.90
50013;DHT22;35901;48.694;9.476;2022-12-08T03:35:49;-4.00;99.90
50013;DHT22;35901;48.694;9.476;2022-12-08T03:38:16;-3.90;99.90
50013;DHT22;35901;48.694;9.476;2022-12-08T03:40:43;-3.90;99.90
50013;DHT22;35901;48.694;9.476;2022-12-08T03:45:37;-3.90;99.90
50013;DHT22;35901;48.694;9.476;2022-12-08T03:48:21;-3.90;99.90
50013;DHT22;35901;48.694;9.476;2022-12-08T03:50:47;-3.90;99.90
50013;DHT22;35901;48.694;9.476;2022-12-08T03:53:13;-3.90;99.90
50013;DHT22;35901;48.694;9.476;2022-12-08T03:55:38;-3.90;99.90
50013;DHT22;35901;48.694;9.476;2022-12-08T03:58:04;-3.90;99.90
50013;DHT22;35901;48.694;9.476;2022-12-08T04:00:29;-3.90;99.90
50013;DHT22;35901;48.694;9.476;2022-12-08T04:02:55;-3.90;99.90
50013;DHT22;35901;48.694;9.476;2022-12-08T04:05:21;-3.80;99.90
50013;DHT22;35901;48.694;9.476;2022-12-08T04:07:46;-3.80;99.90
50013;DHT22;35901;48.694;9.476;2022-12-08T04:10:12;-3.80;99.90
50013;DHT22;35901;48.694;9.476;2022-12-08T04:12:37;-3.80;99.90
50013;DHT22;35901;48.694;9.476;2022-12-08T04:15:03;-3.90;99.90
50013;DHT22;35901;48.694;9.476;2022-12-08T04:17:29;-3.70;99.90
50013;DHT22;35901;48.694;9.476;2022-12-08T04:19:55;-3.70;99.90
50013;DHT22;35901;48.694;9.476;2022-12-08T04:22:20;-3.70;99.90
50013;DHT22;35901;48.694;9.476;2022-12-08T04:24:46;-3.60;99.90
50013;DHT22;35901;48.694;9.476;2022-12-08T04:27:12;-3.60;99.90
50013;DHT22;35901;48.694;9.476;2022-12-08T04:29:37;-3.60;99.90
50013;DHT22;35901;48.694;9.476;2022-12-08T04:32:03;-3.70;99.90
50013;DHT22;35901;48.694;9.476;2022-12-08T04:34:29;-3.80;99.90
50013;DHT22;35901;48.694;9.476;2022-12-08T04:36:54;-4.00;99.90
50013;DHT22;35901;48.694;9.476;2022-12-08T04:39:20;-4.10;99.90
50013;DHT22;35901;48.694;9.476;2022-12-08T04:41:45;-4.30;99.90
50013;DHT22;35901;48.694;9.476;2022-12-08T04:44:11;-4.40;99.90
50013;DHT22;35901;48.694;9.476;2022-12-08T04:46:37;-4.40;99.90
50013;DHT22;35901;48.694;9.476;2022-12-08T04:49:02;-4.50;99.90
50013;DHT22;35901;48.694;9.476;2022-12-08T04:51:28;-4.40;99.90
50013;DHT22;35901;48.694;9.476;2022-12-08T04:53:53;-4.30;99.90
50013;DHT22;35901;48.694;9.476;2022-12-08T04:56:19;-4.10;99.90
50013;DHT22;35901;48.694;9.476;2022-12-08T04:58:45;-3.90;99.90
50013;DHT22;35901;48.694;9.476;2022-12-08T05:01:11;-3.90;99.90
50013;DHT22;35901;48.694;9.476;2022-12-08T05:03:37;-3.90;99.90
50013;DHT22;35901;48.694;9.476;2022-12-08T05:06:04;-4.00;99.90
50013;DHT22;35901;48.694;9.476;2022-12-08T05:08:30;-4.00;99.90
50013;DHT22;35901;48.694;9.476;2022-12-08T05:11:04;-4.10;99.90
50013;DHT22;35901;48.694;9.476;2022-12-08T05:13:31;-4.20;99.90
50013;DHT22;35901;48.694;9.476;2022-12-08T05:16:04;-4.30;99.90
50013;DHT22;35901;48.694;9.476;2022-12-08T05:18:30;-4.50;99.90
50013;DHT22;35901;48.694;9.476;2022-12-08T05:20:56;-4.60;99.90
50013;DHT22;35901;48.694;9.476;2022-12-08T05:23:22;-4.70;99.90
50013;DHT22;35901;48.694;9.476;2022-12-08T05:25:47;-4.70;99.90
50013;DHT22;35901;48.694;9.476;2022-12-08T05:28:13;-4.70;99.90
50013;DHT22;35901;48.694;9.476;2022-12-08T05:30:38;-4.70;99.90
50013;DHT22;35901;48.694;9.476;2022-12-08T05:33:04;-4.70;99.90
50013;DHT22;35901;48.694;9.476;2022-12-08T05:35:30;-4.60;99.90
50013;DHT22;35901;48.694;9.476;2022-12-08T05:37:55;-4.50;99.90
50013;DHT22;35901;48.694;9.476;2022-12-08T05:40:21;-4.40;99.90
50013;DHT22;35901;48.694;9.476;2022-12-08T05:42:47;-4.30;99.90
50013;DHT22;35901;48.694;9.476;2022-12-08T05:45:12;-4.20;99.90
50013;DHT22;35901;48.694;9.476;2022-12-08T05:47:38;-4.10;99.90
50013;DHT22;35901;48.694;9.476;2022-12-08T05:50:04;-4.10;99.90
50013;DHT22;35901;48.694;9.476;2022-12-08T05:52:31;-4.10;99.90
50013;DHT22;35901;48.694;9.476;2022-12-08T05:54:56;-4.10;99.90
50013;DHT22;35901;48.694;9.476;2022-12-08T05:57:22;-4.20;99.90
50013;DHT22;35901;48.694;9.476;2022-12-08T05:59:48;-4.30;99.90
50013;DHT22;35901;48.694;9.476;2022-12-08T06:02:14;-4.30;99.90
50013;DHT22;35901;48.694;9.476;2022-12-08T06:04:39;-4.10;99.90
50013;DHT22;35901;48.694;9.476;2022-12-08T06:07:06;-4.10;99.90
50013;DHT22;35901;48.694;9.476;2022-12-08T06:09:32;-4.30;99.90
50013;DHT22;35901;48.694;9.476;2022-12-08T06:11:57;-4.50;99.90
50013;DHT22;35901;48.694;9.476;2022-12-08T06:14:23;-4.70;99.90
50013;DHT22;35901;48.694;9.476;2022-12-08T06:16:49;-4.80;99.90
50013;DHT22;35901;48.694;9.476;2022-12-08T06:19:14;-4.80;99.90
50013;DHT22;35901;48.694;9.476;2022-12-08T06:21:40;-4.80;99.90
50013;DHT22;35901;48.694;9.476;2022-12-08T06:24:06;-4.90;99.90
50013;DHT22;35901;48.694;9.476;2022-12-08T06:26:32;-5.00;99.90
50013;DHT22;35901;48.694;9.476;2022-12-08T06:28:57;-5.10;99.90
50013;DHT22;35901;48.694;9.476;2022-12-08T06:31:25;-5.00;99.90
50013;DHT22;35901;48.694;9.476;2022-12-08T06:33:52;-4.90;99.90
50013;DHT22;35901;48.694;9.476;2022-12-08T06:36:20;-4.90;99.90
50013;DHT22;35901;48.694;9.476;2022-12-08T06:38:47;-5.00;99.90
50013;DHT22;35901;48.694;9.476;2022-12-08T06:41:13;-5.10;99.90
50013;DHT22;35901;48.694;9.476;2022-12-08T06:43:39;-5.20;99.90
50013;DHT22;35901;48.694;9.476;2022-12-08T06:46:07;-5.20;99.90
50013;DHT22;35901;48.694;9.476;2022-12-08T06:48:33;-5.30;99.90
50013;DHT22;35901;48.694;9.476;2022-12-08T06:51:10;-5.20;99.90
50013;DHT22;35901;48.694;9.476;2022-12-08T06:53:36;-5.00;99.90
50013;DHT22;35901;48.694;9.476;2022-12-08T06:56:02;-4.90;99.90
50013;DHT22;35901;48.694;9.476;2022-12-08T06:58:28;-4.80;99.90
50013;DHT22;35901;48.694;9.476;2022-12-08T07:00:53;-4.80;99.90
50013;DHT22;35901;48.694;9.476;2022-12-08T07:03:19;-4.80;99.90
50013;DHT22;35901;48.694;9.476;2022-12-08T07:05:45;-4.90;99.90
50013;DHT22;35901;48.694;9.476;2022-12-08T07:08:10;-4.80;99.90
50013;DHT22;35901;48.694;9.476;2022-12-08T07:10:36;-4.80;99.90
50013;DHT22;35901;48.694;9.476;2022-12-08T07:13:02;-4.80;99.90
50013;DHT22;35901;48.694;9.476;2022-12-08T07:15:28;-4.70;99.90
50013;DHT22;35901;48.694;9.476;2022-12-08T07:17:53;-4.50;99.90
50013;DHT22;35901;48.694;9.476;2022-12-08T07:20:19;-4.50;99.90
50013;DHT22;35901;48.694;9.476;2022-12-08T07:22:51;-4.40;99.90
50013;DHT22;35901;48.694;9.476;2022-12-08T07:25:18;-4.40;99.90
50013;DHT22;35901;48.694;9.476;2022-12-08T07:27:44;-4.40;99.90
50013;DHT22;35901;48.694;9.476;2022-12-08T07:30:10;-4.50;99.90
50013;DHT22;35901;48.694;9.476;2022-12-08T07:32:36;-4.40;99.90
50013;DHT22;35901;48.694;9.476;2022-12-08T07:35:03;-4.40;99.90
50013;DHT22;35901;48.694;9.476;2022-12-08T07:37:28;-4.50;99.90
50013;DHT22;35901;48.694;9.476;2022-12-08T07:39:54;-4.50;99.90
50013;DHT22;35901;48.694;9.476;2022-12-08T07:42:20;-4.60;99.90
50013;DHT22;35901;48.694;9.476;2022-12-08T07:44:46;-4.60;99.90
50013;DHT22;35901;48.694;9.476;2022-12-08T07:47:11;-4.60;99.90
50013;DHT22;35901;48.694;9.476;2022-12-08T07:49:37;-4.50;99.90
50013;DHT22;35901;48.694;9.476;2022-12-08T07:52:02;-4.20;99.90
50013;DHT22;35901;48.694;9.476;2022-12-08T07:54:28;-3.70;99.90
50013;DHT22;35901;48.694;9.476;2022-12-08T07:56:56;-3.10;99.90
50013;DHT22;35901;48.694;9.476;2022-12-08T07:59:22;-2.80;99.90
50013;DHT22;35901;48.694;9.476;2022-12-08T08:01:47;-2.50;99.90
50013;DHT22;35901;48.694;9.476;2022-12-08T08:04:13;-2.30;99.90
50013;DHT22;35901;48.694;9.476;2022-12-08T08:06:39;-2.20;99.90
50013;DHT22;35901;48.694;9.476;2022-12-08T08:09:04;-2.10;99.90
50013;DHT22;35901;48.694;9.476;2022-12-08T08:11:30;-2.00;99.90
50013;DHT22;35901;48.694;9.476;2022-12-08T08:13:56;-1.90;99.90
50013;DHT22;35901;48.694;9.476;2022-12-08T08:16:22;-1.90;99.90
50013;DHT22;35901;48.694;9.476;2022-12-08T08:18:49;-1.70;99.90
50013;DHT22;35901;48.694;9.476;2022-12-08T08:21:16;-1.70;99.90
50013;DHT22;35901;48.694;9.476;2022-12-08T08:23:43;-1.70;99.90
50013;DHT22;35901;48.694;9.476;2022-12-08T08:26:08;-1.40;99.90
50013;DHT22;35901;48.694;9.476;2022-12-08T08:28:34;-1.30;99.90
50013;DHT22;35901;48.694;9.476;2022-12-08T08:31:00;-1.20;99.90
50013;DHT22;35901;48.694;9.476;2022-12-08T08:33:26;-1.10;99.90
50013;DHT22;35901;48.694;9.476;2022-12-08T08:35:53;-1.00;99.90
50013;DHT22;35901;48.694;9.476;2022-12-08T08:38:20;-1.00;99.90
50013;DHT22;35901;48.694;9.476;2022-12-08T08:40:45;-1.00;99.90
50013;DHT22;35901;48.694;9.476;2022-12-08T08:43:11;-0.90;99.90
50013;DHT22;35901;48.694;9.476;2022-12-08T08:46:00;-0.80;99.90
50013;DHT22;35901;48.694;9.476;2022-12-08T08:48:27;-0.80;99.90
50013;DHT22;35901;48.694;9.476;2022-12-08T08:50:53;-0.60;99.90
50013;DHT22;35901;48.694;9.476;2022-12-08T08:53:19;-0.60;99.90
50013;DHT22;35901;48.694;9.476;2022-12-08T08:55:47;-0.60;99.90
50013;DHT22;35901;48.694;9.476;2022-12-08T08:58:13;-0.50;99.90
50013;DHT22;35901;48.694;9.476;2022-12-08T09:00:39;-0.30;99.90
50013;DHT22;35901;48.694;9.476;2022-12-08T09:03:04;-0.20;99.90
50013;DHT22;35901;48.694;9.476;2022-12-08T09:05:30;0.10;99.90
50013;DHT22;35901;48.694;9.476;2022-12-08T09:07:56;0.30;99.90
50013;DHT22;35901;48.694;9.476;2022-12-08T09:10:22;0.20;99.90
50013;DHT22;35901;48.694;9.476;2022-12-08T09:12:48;0.30;99.90
50013;DHT22;35901;48.694;9.476;2022-12-08T09:15:14;0.30;99.90
50013;DHT22;35901;48.694;9.476;2022-12-08T09:17:40;0.30;99.90
50013;DHT22;35901;48.694;9.476;2022-12-08T09:20:06;0.30;99.90
50013;DHT22;35901;48.694;9.476;2022-12-08T09:22:32;0.40;99.90
50013;DHT22;35901;48.694;9.476;2022-12-08T09:24:57;0.60;99.90
50013;DHT22;35901;48.694;9.476;2022-12-08T09:27:23;0.60;99.90
50013;DHT22;35901;48.694;9.476;2022-12-08T09:29:49;0.80;99.90
50013;DHT22;35901;48.694;9.476;2022-12-08T09:32:14;0.90;99.90
50013;DHT22;35901;48.694;9.476;2022-12-08T09:34:40;1.20;99.90
50013;DHT22;35901;48.694;9.476;2022-12-08T09:37:06;1.30;99.90
50013;DHT22;35901;48.694;9.476;2022-12-08T09:39:34;1.60;99.90
50013;DHT22;35901;48.694;9.476;2022-12-08T09:42:04;1.80;99.90
50013;DHT22;35901;48.694;9.476;2022-12-08T09:47:00;2.30;99.90
50013;DHT22;35901;48.694;9.476;2022-12-08T09:49:41;2.40;99.90
50013;DHT22;35901;48.694;9.476;2022-12-08T09:52:19;2.00;99.90
50013;DHT22;35901;48.694;9.476;2022-12-08T09:54:46;1.70;99.90
50013;DHT22;35901;48.694;9.476;2022-12-08T09:57:16;1.70;99.90
50013;DHT22;35901;48.694;9.476;2022-12-08T09:59:47;1.90;99.90
50013;DHT22;35901;48.694;9.476;2022-12-08T10:02:25;2.30;99.90
50013;DHT22;35901;48.694;9.476;2022-12-08T10:04:54;2.70;99.90
50013;DHT22;35901;48.694;9.476;2022-12-08T10:07:40;3.00;99.90
50013;DHT22;35901;48.694;9.476;2022-12-08T10:10:28;3.20;99.90
50013;DHT22;35901;48.694;9.476;2022-12-08T10:18:37;3.90;99.90
50013;DHT22;35901;48.694;9.476;2022-12-08T10:21:16;4.10;99.90
50013;DHT22;35901;48.694;9.476;2022-12-08T10:23:51;4.10;99.90
50013;DHT22;35901;48.694;9.476;2022-12-08T10:26:20;4.30;99.90
50013;DHT22;35901;48.694;9.476;2022-12-08T10:28:47;4.50;99.90
50013;DHT22;35901;48.694;9.476;2022-12-08T10:31:23;4.60;99.90
50013;DHT22;35901;48.694;9.476;2022-12-08T10:34:00;4.80;99.90
50013;DHT22;35901;48.694;9.476;2022-12-08T10:39:40;5.30;99.90
50013;DHT22;35901;48.694;9.476;2022-12-08T10:44:58;5.30;99.90
50013;DHT22;35901;48.694;9.476;2022-12-08T10:47:26;5.40;99.90
50013;DHT22;35901;48.694;9.476;2022-12-08T10:50:22;5.70;99.90
50013;DHT22;35901;48.694;9.476;2022-12-08T10:52:57;5.90;99.90
50013;DHT22;35901;48.694;9.476;2022-12-08T10:55:24;6.20;99.90
50013;DHT22;35901;48.694;9.476;2022-12-08T10:57:50;6.10;99.90
50013;DHT22;35901;48.694;9.476;2022-12-08T11:00:22;5.90;99.90
50013;DHT22;35901;48.694;9.476;2022-12-08T11:02:57;5.90;99.90
50013;DHT22;35901;48.694;9.476;2022-12-08T11:05:27;5.90;99.90
50013;DHT22;35901;48.694;9.476;2022-12-08T11:07:54;6.10;99.90
50013;DHT22;35901;48.694;9.476;2022-12-08T11:10:36;6.40;99.90
50013;DHT22;35901;48.694;9.476;2022-12-08T11:13:05;6.40;99.90
50013;DHT22;35901;48.694;9.476;2022-12-08T11:15:34;6.60;99.90
50013;DHT22;35901;48.694;9.476;2022-12-08T11:18:23;6.90;99.90
50013;DHT22;35901;48.694;9.476;2022-12-08T11:21:00;7.10;99.90
50013;DHT22;35901;48.694;9.476;2022-12-08T11:23:30;7.10;99.90
50013;DHT22;35901;48.694;9.476;2022-12-08T11:26:06;7.10;99.90
50013;DHT22;35901;48.694;9.476;2022-12-08T11:28:36;7.00;99.90
50013;DHT22;35901;48.694;9.476;2022-12-08T11:31:11;7.10;99.90
50013;DHT22;35901;48.694;9.476;2022-12-08T11:33:40;7.00;99.90
50013;DHT22;35901;48.694;9.476;2022-12-08T11:36:10;6.90;99.90
50013;DHT22;35901;48.694;9.476;2022-12-08T11:38:41;6.70;99.90
50013;DHT22;35901;48.694;9.476;2022-12-08T11:41:16;6.50;99.90
50013;DHT22;35901;48.694;9.476;2022-12-08T11:46:16;5.40;99.90
50013;DHT22;35901;48.694;9.476;2022-12-08T11:48:49;5.00;99.90
50013;DHT22;35901;48.694;9.476;2022-12-08T11:51:46;5.30;99.90
50013;DHT22;35901;48.694;9.476;2022-12-08T11:54:56;5.10;99.90
50013;DHT22;35901;48.694;9.476;2022-12-08T11:57:20;4.90;99.90
50013;DHT22;35901;48.694;9.476;2022-12-08T11:59:49;4.50;99.90
50013;DHT22;35901;48.694;9.476;2022-12-08T12:02:31;4.30;99.90
50013;DHT22;35901;48.694;9.476;2022-12-08T12:05:10;4.00;99.90
50013;DHT22;35901;48.694;9.476;2022-12-08T12:08:02;3.70;99.90
50013;DHT22;35901;48.694;9.476;2022-12-08T12:10:47;3.50;99.90
50013;DHT22;35901;48.694;9.476;2022-12-08T12:13:40;3.40;99.90
50013;DHT22;35901;48.694;9.476;2022-12-08T12:19:18;3.90;99.90
50013;DHT22;35901;48.694;9.476;2022-12-08T12:21:48;4.10;99.90
50013;DHT22;35901;48.694;9.476;2022-12-08T12:24:23;4.10;99.90
50013;DHT22;35901;48.694;9.476;2022-12-08T12:27:01;4.00;99.90
50013;DHT22;35901;48.694;9.476;2022-12-08T12:29:30;3.80;99.90
50013;DHT22;35901;48.694;9.476;2022-12-08T12:32:08;3.80;99.90
50013;DHT22;35901;48.694;9.476;2022-12-08T12:34:48;3.70;99.90
50013;DHT22;35901;48.694;9.476;2022-12-08T12:37:16;3.60;99.90
50013;DHT22;35901;48.694;9.476;2022-12-08T12:42:34;3.50;99.90
50013;DHT22;35901;48.694;9.476;2022-12-08T12:48:11;3.50;99.90
50013;DHT22;35901;48.694;9.476;2022-12-08T12:50:44;3.40;99.90
50013;DHT22;35901;48.694;9.476;2022-12-08T13:00:48;3.00;99.90
50013;DHT22;35901;48.694;9.476;2022-12-08T13:03:15;3.00;99.90
50013;DHT22;35901;48.694;9.476;2022-12-08T13:05:51;2.90;99.90
50013;DHT22;35901;48.694;9.476;2022-12-08T13:08:23;2.80;99.90
50013;DHT22;35901;48.694;9.476;2022-12-08T13:11:05;2.80;99.90
50013;DHT22;35901;48.694;9.476;2022-12-08T13:13:33;2.80;99.90
50013;DHT22;35901;48.694;9.476;2022-12-08T13:16:04;2.80;99.90
50013;DHT22;35901;48.694;9.476;2022-12-08T13:18:45;2.70;99.90
50013;DHT22;35901;48.694;9.476;2022-12-08T13:21:13;2.60;99.90
50013;DHT22;35901;48.694;9.476;2022-12-08T13:26:49;2.50;99.90
50013;DHT22;35901;48.694;9.476;2022-12-08T13:29:22;2.40;99.90
50013;DHT22;35901;48.694;9.476;2022-12-08T13:31:52;2.40;99.90
50013;DHT22;35901;48.694;9.476;2022-12-08T13:34:37;2.40;99.90
50013;DHT22;35901;48.694;9.476;2022-12-08T13:37:19;2.40;99.90
50013;DHT22;35901;48.694;9.476;2022-12-08T13:40:34;2.40;99.90
50013;DHT22;35901;48.694;9.476;2022-12-08T13:42:43;2.40;99.90
50013;DHT22;35901;48.694;9.476;2022-12-08T13:47:47;2.30;99.90
50013;DHT22;35901;48.694;9.476;2022-12-08T13:50:21;2.30;99.90
50013;DHT22;35901;48.694;9.476;2022-12-08T13:53:04;2.30;99.90
50013;DHT22;35901;48.694;9.476;2022-12-08T13:55:42;2.30;99.90
50013;DHT22;35901;48.694;9.476;2022-12-08T13:58:21;2.30;99.90
50013;DHT22;35901;48.694;9.476;2022-12-08T14:03:19;2.40;99.90
50013;DHT22;35901;48.694;9.476;2022-12-08T14:05:45;2.40;99.90
50013;DHT22;35901;48.694;9.476;2022-12-08T14:08:29;2.50;99.90
50013;DHT22;35901;48.694;9.476;2022-12-08T14:11:02;2.50;99.90
50013;DHT22;35901;48.694;9.476;2022-12-08T14:13:30;2.60;99.90
50013;DHT22;35901;48.694;9.476;2022-12-08T14:15:57;2.50;99.90
50013;DHT22;35901;48.694;9.476;2022-12-08T14:18:24;2.50;99.90
50013;DHT22;35901;48.694;9.476;2022-12-08T14:21:11;2.40;99.90
50013;DHT22;35901;48.694;9.476;2022-12-08T14:23:37;2.40;99.90
50013;DHT22;35901;48.694;9.476;2022-12-08T14:26:04;2.40;99.90
50013;DHT22;35901;48.694;9.476;2022-12-08T14:28:33;2.40;99.90
50013;DHT22;35901;48.694;9.476;2022-12-08T14:30:59;2.40;99.90
50013;DHT22;35901;48.694;9.476;2022-12-08T14:33:25;2.30;99.90
50013;DHT22;35901;48.694;9.476;2022-12-08T14:35:53;2.30;99.90
50013;DHT22;35901;48.694;9.476;2022-12-08T14:38:20;2.30;99.90
50013;DHT22;35901;48.694;9.476;2022-12-08T14:41:09;2.30;99.90
50013;DHT22;35901;48.694;9.476;2022-12-08T14:43:34;2.30;99.90
50013;DHT22;35901;48.694;9.476;2022-12-08T14:46:02;2.20;99.90
50013;DHT22;35901;48.694;9.476;2022-12-08T14:51:04;2.20;99.90
50013;DHT22;35901;48.694;9.476;2022-12-08T14:54:08;2.20;99.90
50013;DHT22;35901;48.694;9.476;2022-12-08T14:59:21;2.10;99.90
50013;DHT22;35901;48.694;9.476;2022-12-08T15:01:52;2.10;99.90
50013;DHT22;35901;48.694;9.476;2022-12-08T15:04:26;2.00;99.90
50013;DHT22;35901;48.694;9.476;2022-12-08T15:12:04;1.90;99.90
50013;DHT22;35901;48.694;9.476;2022-12-08T15:14:32;1.90;99.90
50013;DHT22;35901;48.694;9.476;2022-12-08T15:16:58;1.90;99.90
50013;DHT22;35901;48.694;9.476;2022-12-08T15:19:32;1.80;99.90
50013;DHT22;35901;48.694;9.476;2022-12-08T15:22:15;1.80;99.90
50013;DHT22;35901;48.694;9.476;2022-12-08T15:24:41;1.80;99.90
50013;DHT22;35901;48.694;9.476;2022-12-08T15:27:09;1.70;99.90
50013;DHT22;35901;48.694;9.476;2022-12-08T15:29:40;1.70;99.90
50013;DHT22;35901;48.694;9.476;2022-12-08T15:32:09;1.70;99.90
50013;DHT22;35901;48.694;9.476;2022-12-08T15:34:35;1.60;99.90
50013;DHT22;35901;48.694;9.476;2022-12-08T15:37:02;1.60;99.90
50013;DHT22;35901;48.694;9.476;2022-12-08T15:39:36;1.60;99.90
50013;DHT22;35901;48.694;9.476;2022-12-08T15:42:04;1.60;99.90
50013;DHT22;35901;48.694;9.476;2022-12-08T15:44:30;1.60;99.90
50013;DHT22;35901;48.694;9.476;2022-12-08T15:46:58;1.50;99.90
50013;DHT22;35901;48.694;9.476;2022-12-08T15:49:24;1.50;99.90
50013;DHT22;35901;48.694;9.476;2022-12-08T15:51:50;1.50;99.90
50013;DHT22;35901;48.694;9.476;2022-12-08T15:54:17;1.50;99.90
50013;DHT22;35901;48.694;9.476;2022-12-08T15:59:18;1.50;99.90
50013;DHT22;35901;48.694;9.476;2022-12-08T16:01:44;1.50;99.90
50013;DHT22;35901;48.694;9.476;2022-12-08T16:04:15;1.50;99.90
50013;DHT22;35901;48.694;9.476;2022-12-08T16:06:43;1.40;99.90
50013;DHT22;35901;48.694;9.476;2022-12-08T16:11:55;1.50;99.90
50013;DHT22;35901;48.694;9.476;2022-12-08T16:14:39;1.50;99.90
50013;DHT22;35901;48.694;9.476;2022-12-08T16:17:14;1.50;99.90
50013;DHT22;35901;48.694;9.476;2022-12-08T16:19:40;1.50;99.90
50013;DHT22;35901;48.694;9.476;2022-12-08T16:22:13;1.50;99.90
50013;DHT22;35901;48.694;9.476;2022-12-08T16:24:40;1.50;99.90
50013;DHT22;35901;48.694;9.476;2022-12-08T16:27:17;1.50;99.90
50013;DHT22;35901;48.694;9.476;2022-12-08T16:29:44;1.50;99.90
50013;DHT22;35901;48.694;9.476;2022-12-08T16:32:13;1.40;99.90
50013;DHT22;35901;48.694;9.476;2022-12-08T16:34:40;1.40;99.90
50013;DHT22;35901;48.694;9.476;2022-12-08T16:37:06;1.40;99.90
50013;DHT22;35901;48.694;9.476;2022-12-08T16:39:31;1.40;99.90
50013;DHT22;35901;48.694;9.476;2022-12-08T16:41:58;1.30;99.90
50013;DHT22;35901;48.694;9.476;2022-12-08T16:44:43;1.30;99.90
50013;DHT22;35901;48.694;9.476;2022-12-08T16:47:11;1.30;99.90
50013;DHT22;35901;48.694;9.476;2022-12-08T16:49:37;1.20;99.90
50013;DHT22;35901;48.694;9.476;2022-12-08T16:52:04;1.20;99.90
50013;DHT22;35901;48.694;9.476;2022-12-08T16:54:29;1.20;99.90
50013;DHT22;35901;48.694;9.476;2022-12-08T16:56:55;1.20;99.90
50013;DHT22;35901;48.694;9.476;2022-12-08T16:59:21;1.20;99.90
50013;DHT22;35901;48.694;9.476;2022-12-08T17:01:47;1.20;99.90
50013;DHT22;35901;48.694;9.476;2022-12-08T17:04:12;1.20;99.90
50013;DHT22;35901;48.694;9.476;2022-12-08T17:06:38;1.20;99.90
50013;DHT22;35901;48.694;9.476;2022-12-08T17:09:04;1.20;99.90
50013;DHT22;35901;48.694;9.476;2022-12-08T17:11:29;1.20;99.90
50013;DHT22;35901;48.694;9.476;2022-12-08T17:13:57;1.20;99.90
50013;DHT22;35901;48.694;9.476;2022-12-08T17:16:23;1.20;99.90
50013;DHT22;35901;48.694;9.476;2022-12-08T17:18:49;1.20;99.90
50013;DHT22;35901;48.694;9.476;2022-12-08T17:21:16;1.20;99.90